Time;durP1;ratioP1;P1;durP2;ratioP2;P2;SDS_P1;SDS_P2;PMS_P1;PMS_P2;Temp;Humidity;BMP_temperature;BMP_pressure;BME280_temperature;BME280_humidity;BME280_pressure;Samples;Min_cycle;Max_cycle;Signal;HPM_P1;HPM_P2
2021/06/04 00:00:31;;;;;;;0.83;0.83;;;;;;;20.08;100.00;100637.47;5018517;28;20904;-51
2021/06/04 00:03:01;;;;;;;0.70;0.67;;;;;;;19.90;100.00;100642.19;5019865;28;20468;-51
2021/06/04 00:05:32;;;;;;;0.50;0.30;;;;;;;19.98;100.00;100634.47;5025398;28;20454;-52
2021/06/04 00:07:59;;;;;;;1.17;1.17;;;;;;;20.05;100.00;100645.75;5025363;28;20486;-51
2021/06/04 00:10:37;;;;;;;0.40;0.20;;;;;;;19.93;100.00;100638.44;5019543;28;20833;-51
2021/06/04 00:13:25;;;;;;;0.50;0.20;;;;;;;19.62;100.00;100637.59;5018819;28;20765;-51
2021/06/04 00:15:57;;;;;;;0.50;0.40;;;;;;;19.69;100.00;100636.25;5019037;28;20516;-51
2021/06/04 00:18:24;;;;;;;0.40;0.20;;;;;;;19.73;100.00;100636.94;5024439;28;20451;-51
2021/06/04 00:20:52;;;;;;;0.40;0.20;;;;;;;19.65;100.00;100626.63;5024604;28;20492;-52
2021/06/04 00:23:19;;;;;;;0.40;0.30;;;;;;;19.39;100.00;100627.28;5018669;28;20472;-52
2021/06/04 00:25:46;;;;;;;0.50;0.20;;;;;;;19.42;100.00;100627.09;5018476;28;20448;-52
2021/06/04 00:28:13;;;;;;;0.50;0.20;;;;;;;19.33;100.00;100623.16;5024891;28;20453;-52
2021/06/04 00:30:40;;;;;;;0.50;0.30;;;;;;;19.36;100.00;100624.78;5025162;28;20929;-51
2021/06/04 00:33:07;;;;;;;0.40;0.20;;;;;;;19.30;100.00;100622.44;5019193;28;20475;-51
2021/06/04 00:35:37;;;;;;;0.50;0.20;;;;;;;18.95;100.00;100636.16;5017045;28;20510;-52
2021/06/04 00:38:06;;;;;;;0.40;0.20;;;;;;;19.06;100.00;100640.94;5023600;28;20507;-51
2021/06/04 00:40:39;;;;;;;0.50;0.30;;;;;;;18.75;100.00;100644.50;5025917;28;20519;-52
2021/06/04 00:43:07;;;;;;;0.43;0.20;;;;;;;18.64;100.00;100639.75;5022295;28;20956;-52
2021/06/04 00:45:38;;;;;;;0.40;0.20;;;;;;;18.57;100.00;100635.63;5018171;28;20487;-51
2021/06/04 00:48:05;;;;;;;0.50;0.30;;;;;;;18.57;100.00;100636.47;5020836;28;20449;-52
2021/06/04 00:50:37;;;;;;;0.40;0.30;;;;;;;18.86;100.00;100636.69;5029052;28;20447;-51
2021/06/04 00:53:05;;;;;;;0.43;0.20;;;;;;;18.50;100.00;100632.41;5024477;28;20476;-51
2021/06/04 00:55:32;;;;;;;0.57;0.50;;;;;;;18.55;100.00;100632.13;5018045;28;20451;-51
2021/06/04 00:57:59;;;;;;;0.50;0.30;;;;;;;18.79;100.00;100630.78;5023689;28;20460;-52
2021/06/04 01:00:34;;;;;;;0.40;0.20;;;;;;;18.53;100.00;100634.94;5017880;28;20491;-51
2021/06/04 01:03:03;;;;;;;0.50;0.50;;;;;;;18.69;100.00;100636.78;5018612;28;20972;-51
2021/06/04 01:05:31;;;;;;;0.50;0.40;;;;;;;18.78;100.00;100642.53;5024716;28;20449;-51
2021/06/04 01:08:25;;;;;;;0.50;0.30;;;;;;;18.58;100.00;100640.03;5024400;28;20454;-53
2021/06/04 01:11:06;;;;;;;0.50;0.47;;;;;;;18.76;100.00;100635.47;5012164;28;20440;-51
2021/06/04 01:14:08;;;;;;;0.40;0.20;;;;;;;18.73;100.00;100635.66;5017797;28;20503;-51
2021/06/04 01:17:03;;;;;;;0.40;0.27;;;;;;;18.68;100.00;100635.03;5017490;28;20485;-50
2021/06/04 01:19:51;;;;;;;0.40;0.20;;;;;;;18.77;100.00;100639.91;5016274;28;21068;-51
2021/06/04 01:22:30;;;;;;;0.50;0.40;;;;;;;18.50;100.00;100634.19;5020626;28;20549;-50
2021/06/04 01:25:08;;;;;;;1.63;0.70;;;;;;;18.63;100.00;100636.16;5017248;28;20893;-50
2021/06/04 01:27:40;;;;;;;0.50;0.20;;;;;;;18.19;100.00;100626.97;5018542;28;20444;-52
2021/06/04 01:30:29;;;;;;;0.40;0.20;;;;;;;18.26;100.00;100628.38;5027660;28;20498;-51
2021/06/04 01:33:02;;;;;;;0.40;0.20;;;;;;;18.38;100.00;100625.00;5028166;28;21039;-51
2021/06/04 01:35:38;;;;;;;0.40;0.30;;;;;;;18.23;100.00;100610.59;5025627;28;20481;-51
2021/06/04 01:38:05;;;;;;;0.40;0.20;;;;;;;18.44;100.00;100619.28;5021473;28;20586;-51
2021/06/04 01:40:39;;;;;;;0.40;0.20;;;;;;;18.63;100.00;100619.09;5021490;28;20492;-50
2021/06/04 01:43:16;;;;;;;0.50;0.30;;;;;;;18.55;100.00;100627.63;5022276;28;20467;-51
2021/06/04 01:45:49;;;;;;;0.40;0.20;;;;;;;18.45;100.00;100617.44;5020867;28;20448;-50
2021/06/04 01:48:22;;;;;;;0.40;0.20;;;;;;;18.40;100.00;100620.41;5024718;28;20945;-50
2021/06/04 01:50:56;;;;;;;0.50;0.33;;;;;;;18.19;100.00;100626.97;5033850;28;20986;-51
2021/06/04 01:53:29;;;;;;;0.40;0.20;;;;;;;18.11;100.00;100616.63;5027426;28;20495;-51
2021/06/04 01:56:07;;;;;;;0.40;0.20;;;;;;;18.05;100.00;100620.50;5020558;28;20448;-51
2021/06/04 01:58:40;;;;;;;0.40;0.20;;;;;;;18.03;100.00;100618.84;5027776;28;20470;-51
2021/06/04 02:01:16;;;;;;;0.40;0.20;;;;;;;17.92;100.00;100622.13;5025071;28;20491;-51
2021/06/04 02:03:44;;;;;;;0.40;0.20;;;;;;;17.99;100.00;100628.06;5021138;28;20467;-51
2021/06/04 02:06:11;;;;;;;0.43;0.20;;;;;;;18.05;100.00;100625.88;5022037;28;20972;-50
2021/06/04 02:08:45;;;;;;;0.40;0.20;;;;;;;17.77;100.00;100628.31;5027876;28;20809;-51
2021/06/04 02:11:14;;;;;;;0.50;0.40;;;;;;;17.80;100.00;100620.06;5027404;28;20443;-50
2021/06/04 02:13:44;;;;;;;0.40;0.30;;;;;;;17.71;100.00;100628.66;5022170;28;20529;-51
2021/06/04 02:16:28;;;;;;;0.40;0.30;;;;;;;17.65;100.00;100628.94;5021616;28;20518;-51
2021/06/04 02:19:10;;;;;;;0.50;0.50;;;;;;;17.62;100.00;100626.41;5023738;28;20449;-51
2021/06/04 02:21:47;;;;;;;0.40;0.20;;;;;;;17.48;100.00;100613.69;5025965;28;20528;-51
2021/06/04 02:24:27;;;;;;;0.50;0.50;;;;;;;17.54;100.00;100615.16;5027258;28;20474;-51
2021/06/04 02:27:03;;;;;;;0.50;0.30;;;;;;;17.47;100.00;100614.63;5023720;28;20869;-53
2021/06/04 02:29:44;;;;;;;0.53;0.40;;;;;;;17.45;100.00;100619.22;5020504;28;20498;-51
2021/06/04 02:32:25;;;;;;;0.40;0.20;;;;;;;17.51;100.00;100612.66;5021081;28;20500;-51
2021/06/04 02:34:59;;;;;;;0.50;0.20;;;;;;;17.57;100.00;100612.34;5025812;28;20575;-51
2021/06/04 02:37:37;;;;;;;0.40;0.20;;;;;;;17.42;100.00;100614.00;5026046;28;20451;-51
2021/06/04 02:40:15;;;;;;;0.40;0.20;;;;;;;17.53;100.00;100616.13;5024194;28;20898;-51
2021/06/04 02:42:42;;;;;;;0.40;0.20;;;;;;;17.75;100.00;100616.78;5020672;28;20468;-51
2021/06/04 02:45:36;;;;;;;0.40;0.20;;;;;;;17.79;100.00;100612.97;5020939;28;20449;-52
2021/06/04 02:48:16;;;;;;;0.40;0.20;;;;;;;17.65;100.00;100615.47;5012303;28;21002;-51
2021/06/04 02:50:47;;;;;;;0.50;0.30;;;;;;;17.28;100.00;100614.72;5032776;28;20501;-51
2021/06/04 02:53:34;;;;;;;0.40;0.20;;;;;;;17.48;100.00;100611.00;5026738;28;20487;-51
2021/06/04 02:56:07;;;;;;;0.40;0.20;;;;;;;17.31;100.00;100619.94;5025224;28;20453;-51
2021/06/04 02:58:35;;;;;;;0.50;0.40;;;;;;;17.37;100.00;100616.03;5027207;28;20452;-50
2021/06/04 03:01:05;;;;;;;22.87;2.10;;;;;;;17.36;100.00;100615.19;5023888;28;20491;-51
2021/06/04 03:03:33;;;;;;;0.40;0.20;;;;;;;17.37;100.00;100618.75;5020080;28;20468;-51
2021/06/04 03:06:00;;;;;;;0.60;0.40;;;;;;;17.32;100.00;100628.88;5023106;28;21027;-52
2021/06/04 03:08:30;;;;;;;0.40;0.20;;;;;;;17.16;100.00;100623.41;5026491;28;20460;-51
2021/06/04 03:10:57;;;;;;;0.40;0.20;;;;;;;17.15;100.00;100627.03;5024372;28;20501;-52
2021/06/04 03:13:28;;;;;;;0.40;0.20;;;;;;;17.09;100.00;100636.25;5019595;28;20472;-51
2021/06/04 03:15:59;;;;;;;0.40;0.20;;;;;;;17.20;100.00;100632.16;5021497;28;20445;-51
2021/06/04 03:18:42;;;;;;;0.50;0.30;;;;;;;17.10;100.00;100639.81;5026237;28;20491;-52
2021/06/04 03:21:20;;;;;;;0.40;0.20;;;;;;;17.17;100.00;100644.81;5026328;28;20487;-51
2021/06/04 03:23:47;;;;;;;0.40;0.20;;;;;;;16.76;100.00;100652.22;5013262;28;20559;-52
2021/06/04 03:26:20;;;;;;;0.40;0.20;;;;;;;16.75;100.00;100658.53;5016283;28;20967;-52
2021/06/04 03:28:48;;;;;;;0.80;0.80;;;;;;;16.68;100.00;100657.06;5022192;28;20444;-51
2021/06/04 03:31:18;;;;;;;0.43;0.30;;;;;;;16.99;100.00;100653.75;5026401;28;20499;-51
2021/06/04 03:33:46;;;;;;;0.40;0.20;;;;;;;16.97;100.00;100652.09;5025113;28;20502;-48
2021/06/04 03:36:17;;;;;;;0.90;0.90;;;;;;;16.83;100.00;100652.78;5019520;28;20452;-48
2021/06/04 03:38:45;;;;;;;0.40;0.30;;;;;;;16.54;100.00;100655.00;5020115;28;20444;-48
2021/06/04 03:41:16;;;;;;;0.40;0.20;;;;;;;16.64;100.00;100666.19;5025953;28;20595;-48
2021/06/04 03:43:43;;;;;;;0.40;0.30;;;;;;;16.90;100.00;100656.06;5026742;28;20464;-48
2021/06/04 03:46:10;;;;;;;0.40;0.30;;;;;;;16.75;100.00;100658.53;5007168;28;20451;-48
2021/06/04 03:48:37;;;;;;;0.40;0.20;;;;;;;16.76;100.00;100662.09;5019779;28;20541;-48
2021/06/04 03:51:09;;;;;;;0.50;0.40;;;;;;;16.79;100.00;100670.84;5032336;28;20458;-48
2021/06/04 03:53:35;;;;;;;0.40;0.20;;;;;;;16.87;100.00;100663.31;5022663;28;20507;-48
2021/06/04 03:56:04;;;;;;;7.10;1.77;;;;;;;16.81;100.00;100674.34;5018549;28;20456;-47
2021/06/04 03:58:32;;;;;;;0.40;0.20;;;;;;;16.72;100.00;100673.91;5025636;28;20447;-48
2021/06/04 04:01:06;;;;;;;0.40;0.20;;;;;;;16.81;100.00;100670.78;5021241;28;20483;-48
2021/06/04 04:03:33;;;;;;;0.40;0.20;;;;;;;16.97;100.00;100662.84;5018370;28;20607;-50
2021/06/04 04:06:00;;;;;;;0.50;0.40;;;;;;;16.57;100.00;100668.28;5022151;28;20444;-50
2021/06/04 04:08:29;;;;;;;3.13;0.93;;;;;;;16.54;100.00;100670.25;5025269;28;20448;-50
2021/06/04 04:10:58;;;;;;;0.40;0.20;;;;;;;16.67;100.00;100663.38;5022603;28;20817;-51
2021/06/04 04:13:27;;;;;;;0.40;0.20;;;;;;;16.76;100.00;100667.47;5018377;28;20521;-50
2021/06/04 04:15:55;;;;;;;0.40;0.20;;;;;;;16.91;100.00;100668.53;5019731;28;20460;-50
2021/06/04 04:18:22;;;;;;;0.40;0.20;;;;;;;16.84;100.00;100671.50;5023795;28;20452;-50
2021/06/04 04:20:55;;;;;;;0.40;0.30;;;;;;;17.00;100.00;100676.16;5023048;28;20492;-50
2021/06/04 04:23:29;;;;;;;0.40;0.20;;;;;;;16.98;100.00;100678.00;5013471;28;20460;-50
2021/06/04 04:25:56;;;;;;;0.60;0.60;;;;;;;17.09;100.00;100675.69;5025170;28;20440;-50
2021/06/04 04:28:31;;;;;;;6.70;0.80;;;;;;;17.02;100.00;100680.50;5018977;28;20456;-50
2021/06/04 04:31:00;;;;;;;0.40;0.20;;;;;;;17.07;100.00;100680.25;5019171;28;20498;-50
2021/06/04 04:33:28;;;;;;;0.40;0.20;;;;;;;17.18;100.00;100683.28;5030704;28;20482;-50
2021/06/04 04:35:55;;;;;;;0.40;0.20;;;;;;;17.25;100.00;100689.22;5003332;28;20452;-50
2021/06/04 04:38:22;;;;;;;0.40;0.30;;;;;;;17.37;100.00;100684.09;5021464;28;20452;-50
2021/06/04 04:40:52;;;;;;;0.40;0.20;;;;;;;17.29;100.00;100680.09;5019101;28;20538;-50
2021/06/04 04:43:18;;;;;;;0.40;0.30;;;;;;;17.37;100.00;100680.53;5022565;28;20984;-50
2021/06/04 04:45:45;;;;;;;0.40;0.20;;;;;;;17.35;100.00;100680.63;5025060;28;20999;-50
2021/06/04 04:48:12;;;;;;;0.50;0.47;;;;;;;17.45;100.00;100681.03;5021672;28;20455;-50
2021/06/04 04:50:39;;;;;;;0.40;0.30;;;;;;;17.45;100.00;100679.22;5031032;28;20444;-50
2021/06/04 04:53:06;;;;;;;0.40;0.20;;;;;;;17.45;100.00;100676.53;5031947;28;21034;-51
2021/06/04 04:55:36;;;;;;;0.40;0.20;;;;;;;17.62;100.00;100677.50;5018054;28;20856;-51
2021/06/04 04:58:03;;;;;;;0.40;0.20;;;;;;;17.56;100.00;100677.81;5023880;28;20811;-51
2021/06/04 05:00:31;;;;;;;0.50;0.30;;;;;;;17.70;100.00;100686.06;5018130;28;21053;-51
2021/06/04 05:02:59;;;;;;;0.50;0.43;;;;;;;17.76;100.00;100685.75;5019171;28;20481;-51
2021/06/04 05:05:28;;;;;;;0.40;0.20;;;;;;;17.90;100.00;100688.56;5024584;28;20825;-51
2021/06/04 05:07:55;;;;;;;0.40;0.30;;;;;;;17.80;100.00;100691.81;5025062;28;20452;-51
2021/06/04 05:10:22;;;;;;;0.40;0.20;;;;;;;17.70;100.00;100686.06;5018648;28;20472;-50
2021/06/04 05:12:50;;;;;;;0.40;0.30;;;;;;;17.97;100.00;100690.00;5018812;28;20480;-51
2021/06/04 05:15:20;;;;;;;0.40;0.20;;;;;;;18.62;100.00;100695.44;5006328;28;20448;-51
2021/06/04 05:17:47;;;;;;;0.40;0.20;;;;;;;18.96;100.00;100696.31;5018665;28;20484;-50
2021/06/04 05:20:15;;;;;;;0.43;0.30;;;;;;;18.77;100.00;100689.25;5024023;28;21008;-51
2021/06/04 05:22:42;;;;;;;0.40;0.20;;;;;;;18.66;100.00;100691.69;5026126;28;20472;-51
2021/06/04 05:25:17;;;;;;;0.40;0.20;;;;;;;18.58;100.00;100699.28;5024125;28;20866;-51
2021/06/04 05:27:45;;;;;;;0.40;0.20;;;;;;;18.68;100.00;100697.00;5025195;28;20937;-51
2021/06/04 05:30:25;;;;;;;0.40;0.30;;;;;;;18.77;100.00;100702.72;5021756;28;20451;-51
2021/06/04 05:32:52;;;;;;;0.40;0.23;;;;;;;19.40;100.00;100697.31;5018321;28;20510;-51
2021/06/04 05:35:20;;;;;;;0.40;0.30;;;;;;;19.64;100.00;100697.72;5020131;28;20452;-51
2021/06/04 05:37:47;;;;;;;0.40;0.33;;;;;;;20.24;100.00;100694.94;5025382;28;20978;-51
2021/06/04 05:40:18;;;;;;;0.40;0.20;;;;;;;20.78;100.00;100700.53;5023789;28;20480;-50
2021/06/04 05:42:45;;;;;;;0.40;0.20;;;;;;;20.58;100.00;100699.13;5018428;28;20471;-51
2021/06/04 05:45:13;;;;;;;0.40;0.20;;;;;;;21.21;98.62;100704.00;5019311;28;20938;-51
2021/06/04 05:47:40;;;;;;;0.40;0.20;;;;;;;21.55;97.16;100712.63;5025001;28;20452;-51
2021/06/04 05:50:11;;;;;;;0.50;0.30;;;;;;;20.95;98.13;100705.72;5024854;28;20440;-51
2021/06/04 05:52:38;;;;;;;0.50;0.40;;;;;;;20.54;100.00;100702.09;5006256;28;20510;-50
2021/06/04 05:55:05;;;;;;;0.40;0.20;;;;;;;20.05;100.00;100705.16;5018616;28;20499;-51
2021/06/04 05:57:32;;;;;;;0.43;0.30;;;;;;;20.11;100.00;100712.84;5024202;28;20460;-51
2021/06/04 05:59:59;;;;;;;0.40;0.20;;;;;;;20.52;100.00;100706.75;5017996;28;20934;-50
2021/06/04 06:02:25;;;;;;;1.37;1.07;;;;;;;20.80;100.00;100717.53;5023752;28;20496;-51
2021/06/04 06:04:52;;;;;;;0.50;0.20;;;;;;;21.65;97.41;100718.25;5024782;28;20482;-51
2021/06/04 06:07:18;;;;;;;0.40;0.20;;;;;;;21.40;98.46;100717.22;5019818;28;20875;-50
2021/06/04 06:09:45;;;;;;;0.50;0.40;;;;;;;21.28;97.81;100721.63;5018220;28;20460;-51
2021/06/04 06:12:12;;;;;;;0.40;0.20;;;;;;;21.50;98.18;100725.59;5023888;28;20472;-51
2021/06/04 06:14:39;;;;;;;0.40;0.20;;;;;;;21.83;96.97;100725.16;5024964;28;20452;-51
2021/06/04 06:17:06;;;;;;;0.40;0.20;;;;;;;21.65;97.65;100727.25;5022209;28;20987;-51
2021/06/04 06:19:32;;;;;;;0.47;0.30;;;;;;;21.37;99.29;100725.53;5021480;28;20531;-50
2021/06/04 06:22:00;;;;;;;1.23;1.13;;;;;;;21.86;96.77;100719.53;5027047;28;20520;-51
2021/06/04 06:24:27;;;;;;;0.50;0.40;;;;;;;21.86;96.45;100727.66;5017478;28;20452;-51
2021/06/04 06:26:54;;;;;;;0.40;0.20;;;;;;;21.83;96.13;100728.72;5026701;28;20803;-51
2021/06/04 06:29:20;;;;;;;0.40;0.20;;;;;;;21.76;96.85;100721.13;5028245;28;20448;-51
2021/06/04 06:31:50;;;;;;;0.73;0.73;;;;;;;21.70;97.32;100717.00;5023717;28;20443;-51
2021/06/04 06:34:17;;;;;;;0.50;0.30;;;;;;;21.33;97.25;100737.53;5021340;28;20448;-51
2021/06/04 06:36:46;;;;;;;0.50;0.33;;;;;;;21.32;98.00;100741.22;5026166;28;20452;-51
2021/06/04 06:39:24;;;;;;;0.40;0.20;;;;;;;21.44;97.96;100739.53;5028058;28;20451;-51
2021/06/04 06:41:51;;;;;;;0.40;0.20;;;;;;;21.51;97.54;100743.53;5025259;28;20517;-51
2021/06/04 06:44:19;;;;;;;0.47;0.20;;;;;;;21.61;97.99;100738.41;5020932;28;20983;-51
2021/06/04 06:46:47;;;;;;;0.40;0.20;;;;;;;21.78;96.52;100735.41;5023250;28;20544;-51
2021/06/04 06:49:15;;;;;;;9.93;1.70;;;;;;;22.50;93.47;100731.31;5032756;28;20501;-51
2021/06/04 06:51:41;;;;;;;0.40;0.20;;;;;;;22.83;92.83;100735.31;5034292;28;20753;-51
2021/06/04 06:54:17;;;;;;;0.50;0.40;;;;;;;23.19;91.43;100738.06;5021241;28;20961;-51
2021/06/04 06:56:46;;;;;;;0.60;0.53;;;;;;;23.23;90.50;100735.97;5021008;28;20467;-51
2021/06/04 06:59:13;;;;;;;0.70;0.60;;;;;;;23.69;88.06;100738.81;5026543;28;20455;-51
2021/06/04 07:01:40;;;;;;;0.50;0.50;;;;;;;24.07;87.45;100729.59;5027256;28;21090;-52
2021/06/04 07:04:08;;;;;;;0.50;0.20;;;;;;;23.99;85.27;100732.91;5022747;28;20498;-52
2021/06/04 07:06:37;;;;;;;0.50;0.50;;;;;;;24.13;84.11;100734.56;5018831;28;20452;-52
2021/06/04 07:09:10;;;;;;;0.50;0.40;;;;;;;24.17;85.19;100727.91;5023688;28;20444;-52
2021/06/04 07:11:41;;;;;;;0.50;0.20;;;;;;;24.29;83.94;100726.06;5020514;28;20863;-53
2021/06/04 07:14:10;;;;;;;0.50;0.30;;;;;;;23.98;86.90;100719.44;5023603;28;20444;-52
2021/06/04 07:16:38;;;;;;;1.00;0.53;;;;;;;24.40;84.91;100726.13;5027099;28;20864;-52
2021/06/04 07:19:05;;;;;;;0.57;0.37;;;;;;;24.96;84.17;100735.16;5025581;28;20451;-52
2021/06/04 07:21:32;;;;;;;0.50;0.30;;;;;;;25.55;82.12;100733.94;5020098;28;20488;-52
2021/06/04 07:24:00;;;;;;;1.17;0.73;;;;;;;24.97;83.86;100739.59;5022337;28;20453;-52
2021/06/04 07:26:27;;;;;;;0.50;0.40;;;;;;;25.01;84.30;100738.38;5027139;28;20849;-52
2021/06/04 07:29:00;;;;;;;0.50;0.30;;;;;;;24.91;84.64;100731.91;5026154;28;20452;-53
2021/06/04 07:31:28;;;;;;;0.50;0.27;;;;;;;25.14;84.52;100732.81;5019334;28;20452;-52
2021/06/04 07:33:57;;;;;;;0.60;0.60;;;;;;;25.33;81.96;100726.69;5020645;28;20479;-52
2021/06/04 07:36:28;;;;;;;0.93;0.93;;;;;;;24.51;83.88;100724.25;5026908;28;20452;-52
2021/06/04 07:38:57;;;;;;;1.83;1.73;;;;;;;24.65;83.58;100727.72;5026984;28;20476;-52
2021/06/04 07:41:26;;;;;;;0.63;0.60;;;;;;;24.57;84.66;100730.22;5021223;28;20530;-52
2021/06/04 07:43:53;;;;;;;0.50;0.30;;;;;;;24.67;85.42;100717.59;5020234;28;20468;-52
2021/06/04 07:46:24;;;;;;;0.50;0.30;;;;;;;25.02;82.58;100712.03;5025201;28;20491;-52
2021/06/04 07:48:53;;;;;;;0.40;0.20;;;;;;;24.72;83.68;100709.94;5028546;28;20447;-52
2021/06/04 07:51:25;;;;;;;0.50;0.47;;;;;;;25.13;84.14;100711.16;5033474;28;20466;-52
2021/06/04 07:53:52;;;;;;;0.50;0.30;;;;;;;25.00;85.02;100705.84;5022389;28;20477;-52
2021/06/04 07:56:20;;;;;;;0.50;0.40;;;;;;;25.71;82.30;100707.16;5019573;28;20505;-52
2021/06/04 07:58:47;;;;;;;0.57;0.57;;;;;;;25.70;80.44;100705.44;5027288;28;20456;-53
2021/06/04 08:01:15;;;;;;;0.50;0.20;;;;;;;25.76;79.90;100707.63;5024398;28;20535;-52
2021/06/04 08:03:44;;;;;;;0.67;0.63;;;;;;;26.18;79.21;100711.25;5020046;28;20472;-52
2021/06/04 08:06:13;;;;;;;0.43;0.30;;;;;;;26.10;79.10;100715.63;5021328;28;20479;-52
2021/06/04 08:08:40;;;;;;;0.50;0.30;;;;;;;25.48;81.34;100713.66;5026389;28;20456;-52
2021/06/04 08:11:11;;;;;;;0.50;0.30;;;;;;;24.90;84.38;100721.16;5025555;28;20455;-52
2021/06/04 08:13:38;;;;;;;0.50;0.40;;;;;;;24.69;84.85;100711.06;5019302;28;20472;-52
2021/06/04 08:16:08;;;;;;;0.60;0.60;;;;;;;24.94;85.15;100711.75;5019841;28;20484;-52
2021/06/04 08:18:35;;;;;;;0.90;0.77;;;;;;;25.26;84.78;100712.75;5020110;28;20439;-52
2021/06/04 08:21:07;;;;;;;0.50;0.30;;;;;;;25.63;82.51;100713.25;5019144;28;21003;-53
2021/06/04 08:23:37;;;;;;;1.37;1.27;;;;;;;25.33;83.99;100715.81;5024476;28;20472;-52
2021/06/04 08:26:07;;;;;;;0.50;0.30;;;;;;;25.73;82.03;100707.03;5025716;28;21014;-52
2021/06/04 08:28:36;;;;;;;0.50;0.30;;;;;;;25.34;82.46;100722.97;5022215;28;20451;-52
2021/06/04 08:31:03;;;;;;;0.47;0.20;;;;;;;25.80;81.25;100713.69;5019372;28;20471;-52
2021/06/04 08:33:34;;;;;;;0.50;0.30;;;;;;;25.72;82.18;100724.38;5022931;28;20501;-52
2021/06/04 08:36:03;;;;;;;0.50;0.30;;;;;;;25.76;81.37;100718.50;5025681;28;20479;-52
2021/06/04 08:38:31;;;;;;;0.53;0.40;;;;;;;26.60;79.12;100719.41;5022760;28;20932;-51
2021/06/04 08:41:26;;;;;;;0.50;0.30;;;;;;;26.73;76.74;100711.88;5019157;28;20794;-52
2021/06/04 08:43:57;;;;;;;0.50;0.20;;;;;;;26.67;76.89;100715.13;5018283;28;20530;-52
2021/06/04 08:46:29;;;;;;;0.47;0.27;;;;;;;26.37;78.26;100707.81;5023783;28;20451;-52
2021/06/04 08:49:26;;;;;;;0.50;0.30;;;;;;;26.11;79.44;100710.03;5028842;28;20414;-52
2021/06/04 08:52:19;;;;;;;2.80;1.97;;;;;;;26.83;76.33;100706.41;5030423;28;20480;-52
2021/06/04 08:55:00;;;;;;;0.50;0.30;;;;;;;26.76;75.44;100697.06;5003959;28;20851;-52
2021/06/04 08:57:44;;;;;;;0.50;0.30;;;;;;;26.66;76.95;100712.53;5014806;28;20459;-52
2021/06/04 09:00:27;;;;;;;0.50;0.30;;;;;;;27.17;72.71;100714.31;5021619;28;20497;-52
2021/06/04 09:03:02;;;;;;;0.77;0.77;;;;;;;26.76;74.27;100708.84;5023902;28;21007;-52
2021/06/04 09:05:54;;;;;;;0.63;0.40;;;;;;;26.24;74.83;100710.69;5018569;28;20468;-52
2021/06/04 09:08:26;;;;;;;0.50;0.30;;;;;;;26.18;74.96;100715.84;5018714;28;20471;-52
2021/06/04 09:10:59;;;;;;;0.40;0.20;;;;;;;26.15;74.27;100716.09;5021683;28;20450;-51
2021/06/04 09:13:32;;;;;;;0.50;0.20;;;;;;;26.51;74.95;100712.03;5025492;28;20897;-52
2021/06/04 09:16:32;;;;;;;0.50;0.20;;;;;;;27.11;70.80;100722.06;5024562;28;20777;-52
2021/06/04 09:19:15;;;;;;;0.77;0.77;;;;;;;26.95;72.13;100720.81;5021484;28;20487;-52
2021/06/04 09:21:44;;;;;;;0.63;0.63;;;;;;;26.98;69.95;100720.53;5025273;28;20492;-52
2021/06/04 09:24:24;;;;;;;0.50;0.20;;;;;;;26.51;72.84;100714.75;5025621;28;20433;-52
2021/06/04 09:26:51;;;;;;;0.50;0.30;;;;;;;26.96;72.02;100711.63;5020904;28;20422;-51
2021/06/04 09:29:26;;;;;;;0.50;0.30;;;;;;;26.35;74.31;100711.63;5018672;28;20448;-52
2021/06/04 09:32:15;;;;;;;2.10;1.03;;;;;;;26.19;75.44;100712.13;5021764;28;20942;-52
2021/06/04 09:34:42;;;;;;;9.57;2.43;;;;;;;26.54;75.38;100706.31;5025300;28;20426;-51
2021/06/04 09:37:27;;;;;;;0.50;0.40;;;;;;;26.76;72.60;100703.41;5025230;28;20443;-52
2021/06/04 09:40:10;;;;;;;0.50;0.30;;;;;;;27.22;68.85;100703.84;5023040;28;20567;-52
2021/06/04 09:42:48;;;;;;;0.60;0.60;;;;;;;28.05;67.32;100700.56;5024838;28;20978;-52
2021/06/04 09:45:29;;;;;;;0.50;0.30;;;;;;;28.41;64.76;100684.41;5025111;28;20418;-51
2021/06/04 09:48:08;;;;;;;0.50;0.20;;;;;;;28.26;65.35;100692.19;5023112;28;20876;-52
2021/06/04 09:50:43;;;;;;;1.00;1.00;;;;;;;27.40;66.92;100686.59;5027397;28;20506;-52
2021/06/04 09:53:29;;;;;;;0.80;0.80;;;;;;;27.51;68.15;100682.88;5025901;28;20845;-52
2021/06/04 09:56:08;;;;;;;0.60;0.50;;;;;;;27.59;67.99;100682.19;5003947;28;20448;-51
2021/06/04 09:59:00;;;;;;;0.50;0.40;;;;;;;27.47;69.25;100681.47;5028524;28;20890;-52
2021/06/04 10:01:41;;;;;;;0.50;0.30;;;;;;;27.64;68.00;100683.50;5028348;28;20784;-52
2021/06/04 10:04:15;;;;;;;0.50;0.30;;;;;;;27.67;67.57;100676.88;5012554;28;20444;-52
2021/06/04 10:06:45;;;;;;;0.50;0.27;;;;;;;28.52;69.08;100679.63;5022151;28;20509;-52
2021/06/04 10:09:24;;;;;;;0.50;0.30;;;;;;;28.22;66.61;100685.28;5025204;28;20426;-52
2021/06/04 10:12:00;;;;;;;0.50;0.30;;;;;;;28.74;65.89;100672.03;5028379;28;20417;-52
2021/06/04 10:14:46;;;;;;;0.50;0.30;;;;;;;28.71;66.05;100672.34;5028503;28;20447;-52
2021/06/04 10:20:43;;;;;;;0.50;0.30;;;;;;;29.26;66.03;100661.38;4993322;28;20854;-52
2021/06/04 10:23:36;;;;;;;0.50;0.30;;;;;;;29.32;65.74;100655.25;5016708;28;20466;-52
2021/06/04 10:26:20;;;;;;;0.60;0.60;;;;;;;29.06;65.68;100646.97;5021318;28;20949;-52
2021/06/04 10:28:52;;;;;;;0.50;0.50;;;;;;;29.21;65.14;100645.41;5023919;28;20423;-52
2021/06/04 10:31:19;;;;;;;0.60;0.50;;;;;;;28.55;66.20;100643.75;5028279;28;20423;-52
2021/06/04 10:34:04;;;;;;;7.70;0.90;;;;;;;28.42;66.94;100629.56;5026270;28;20844;-53
2021/06/04 10:36:36;;;;;;;0.50;0.30;;;;;;;28.91;66.90;100632.91;5027401;28;20426;-52
2021/06/04 10:39:30;;;;;;;0.70;0.63;;;;;;;28.79;67.46;100631.41;5028621;28;20426;-52
2021/06/04 10:42:30;;;;;;;0.50;0.30;;;;;;;28.83;66.15;100627.34;5026915;28;20502;-52
2021/06/04 10:45:06;;;;;;;0.50;0.30;;;;;;;29.29;64.16;100620.84;5019109;28;20492;-53
2021/06/04 10:48:02;;;;;;;1.67;0.50;;;;;;;29.21;63.71;100609.81;5024552;28;20441;-53
2021/06/04 10:50:36;;;;;;;0.50;0.40;;;;;;;28.38;65.14;100603.53;5034590;28;20826;-53
2021/06/04 10:53:41;;;;;;;0.50;0.30;;;;;;;28.97;65.28;100596.72;5035002;28;20453;-52
2021/06/04 10:56:30;;;;;;;0.90;0.87;;;;;;;28.86;62.97;100607.88;4992223;28;20462;-53
2021/06/04 10:59:32;;;;;;;0.50;0.27;;;;;;;29.16;62.11;100606.66;4996871;28;20451;-52
2021/06/04 11:02:18;;;;;;;0.73;0.73;;;;;;;29.51;60.30;100610.47;4998458;28;20461;-53
2021/06/04 11:04:48;;;;;;;0.50;0.40;;;;;;;29.07;61.15;100604.88;5020775;28;20865;-52
2021/06/04 11:07:29;;;;;;;0.50;0.30;;;;;;;30.11;59.67;100600.47;5027033;28;20475;-53
2021/06/04 11:10:02;;;;;;;0.50;0.30;;;;;;;29.50;60.50;100609.59;5026187;28;20441;-53
2021/06/04 11:12:47;;;;;;;0.40;0.30;;;;;;;29.58;60.60;100601.44;5024261;28;20434;-53
2021/06/04 11:15:38;;;;;;;0.50;0.30;;;;;;;29.10;61.67;100605.44;5020382;28;20941;-52
2021/06/04 11:18:22;;;;;;;0.50;0.30;;;;;;;28.70;62.50;100600.31;5020268;28;20909;-52
2021/06/04 11:20:53;;;;;;;0.40;0.30;;;;;;;29.29;61.37;100600.81;5022749;28;20502;-52
2021/06/04 11:23:44;;;;;;;0.50;0.50;;;;;;;29.41;58.70;100599.53;5026773;28;20466;-53
2021/06/04 11:26:25;;;;;;;0.50;0.50;;;;;;;29.24;56.86;100593.06;5020198;28;20799;-53
2021/06/04 11:29:04;;;;;;;1.33;0.77;;;;;;;29.57;56.13;100596.13;5022900;28;20448;-53
2021/06/04 11:32:01;;;;;;;0.50;0.30;;;;;;;29.82;55.78;100594.41;5027035;28;20415;-52
2021/06/04 11:34:44;;;;;;;0.50;0.30;;;;;;;29.48;55.83;100595.19;5027344;28;20416;-53
2021/06/04 11:37:23;;;;;;;0.50;0.30;;;;;;;29.75;54.33;100573.16;5026416;28;20419;-53
2021/06/04 11:39:54;;;;;;;0.50;0.43;;;;;;;29.81;55.88;100577.13;5025892;28;20423;-52
2021/06/04 11:42:33;;;;;;;0.50;0.30;;;;;;;29.80;54.79;100575.41;5026644;28;20501;-53
2021/06/04 11:45:01;;;;;;;0.50;0.33;;;;;;;29.88;53.68;100569.97;5024116;28;20451;-53
2021/06/04 11:47:38;;;;;;;0.50;0.30;;;;;;;30.23;54.15;100565.41;5020008;28;20426;-53
2021/06/04 11:50:09;;;;;;;0.50;0.30;;;;;;;29.37;54.59;100557.91;5033388;28;20422;-52
2021/06/04 11:52:43;;;;;;;0.70;0.40;;;;;;;29.53;57.26;100549.00;5007938;28;20474;-53